createdAt,value
2017-10-15T00:00:26.669Z,0.00
2017-10-15T00:01:26.320Z,0.00
2017-10-15T00:02:26.755Z,0.00
2017-10-15T00:03:26.385Z,0.00
2017-10-15T00:04:26.700Z,0.00
2017-10-15T00:05:26.675Z,0.00
2017-10-15T00:06:26.513Z,0.00
2017-10-15T00:07:26.514Z,0.00
2017-10-15T00:08:26.530Z,8.00
2017-10-15T00:09:26.582Z,4.00
2017-10-15T00:10:26.864Z,4.00
2017-10-15T00:11:26.643Z,4.00
2017-10-15T00:12:26.669Z,4.00
2017-10-15T00:13:26.695Z,4.00
2017-10-15T00:14:26.899Z,4.00
2017-10-15T00:15:26.758Z,4.00
2017-10-15T00:16:27.819Z,4.00
2017-10-15T00:17:27.688Z,4.00
2017-10-15T00:18:26.877Z,4.00
2017-10-15T00:19:27.866Z,4.00
2017-10-15T00:20:26.923Z,4.00
2017-10-15T00:21:26.978Z,4.00
2017-10-15T00:22:27.306Z,4.00
2017-10-15T00:23:27.022Z,4.00
2017-10-15T00:24:27.058Z,4.00
2017-10-15T00:25:27.252Z,4.00
2017-10-15T00:26:27.141Z,4.00
2017-10-15T00:27:27.172Z,4.00
2017-10-15T00:28:27.454Z,4.00
2017-10-15T00:29:27.238Z,4.00
2017-10-15T00:30:27.270Z,4.00
2017-10-15T00:31:27.556Z,4.00
2017-10-15T00:32:27.317Z,4.00
2017-10-15T00:33:27.352Z,4.00
2017-10-15T00:34:27.681Z,4.00
2017-10-15T00:35:27.444Z,4.00
2017-10-15T00:36:27.462Z,4.00
2017-10-15T00:37:27.508Z,4.00
2017-10-15T00:38:27.626Z,4.00
2017-10-15T00:39:27.549Z,4.00
2017-10-15T00:40:27.947Z,4.00
2017-10-15T00:41:27.623Z,4.00
2017-10-15T00:42:27.660Z,0.00
2017-10-15T00:43:27.672Z,0.00
2017-10-15T00:44:28.943Z,0.00
2017-10-15T00:45:27.759Z,0.00
2017-10-15T00:46:28.025Z,0.00
2017-10-15T00:47:27.833Z,0.00
2017-10-15T00:48:28.004Z,0.00
2017-10-15T00:49:27.887Z,0.00
2017-10-15T00:50:27.907Z,0.00
2017-10-15T00:51:27.971Z,0.00
2017-10-15T00:52:28.236Z,0.00
2017-10-15T00:53:28.005Z,0.00
2017-10-15T00:54:28.075Z,0.00
2017-10-15T00:55:28.065Z,0.00
2017-10-15T00:56:28.877Z,0.00
2017-10-15T00:57:28.151Z,0.00
2017-10-15T00:58:28.484Z,0.00
2017-10-15T00:59:28.217Z,0.00
2017-10-15T01:00:28.409Z,0.00
2017-10-15T01:01:28.263Z,0.00
2017-10-15T01:02:28.295Z,0.00
2017-10-15T01:03:28.328Z,0.00
2017-10-15T01:04:28.629Z,0.00
2017-10-15T01:05:28.427Z,0.00
2017-10-15T01:06:30.810Z,0.00
2017-10-15T01:07:28.483Z,0.00
2017-10-15T01:08:28.593Z,0.00
2017-10-15T01:09:28.556Z,0.00
2017-10-15T01:10:28.902Z,0.00
2017-10-15T01:11:28.607Z,0.00
2017-10-15T01:12:28.806Z,0.00
2017-10-15T01:13:28.728Z,0.00
2017-10-15T01:14:28.688Z,0.00
2017-10-15T01:15:28.835Z,0.00
2017-10-15T01:16:29.075Z,0.00
2017-10-15T01:17:28.793Z,0.00
2017-10-15T01:18:28.839Z,0.00
2017-10-15T01:19:28.943Z,0.00
2017-10-15T01:20:28.886Z,0.00
2017-10-15T01:21:28.963Z,0.00
2017-10-15T01:22:28.971Z,0.00
2017-10-15T01:23:31.054Z,0.00
2017-10-15T01:24:29.032Z,0.00
2017-10-15T01:25:29.620Z,0.00
2017-10-15T01:26:29.083Z,0.00
2017-10-15T01:27:29.281Z,0.00
2017-10-15T01:28:29.166Z,0.00
2017-10-15T01:29:29.257Z,0.00
2017-10-15T01:30:29.702Z,0.00
2017-10-15T01:31:29.250Z,0.00
2017-10-15T01:32:29.280Z,0.00
2017-10-15T01:33:29.314Z,0.00
2017-10-15T01:34:30.957Z,0.00
2017-10-15T01:35:29.876Z,0.00
2017-10-15T01:36:29.411Z,0.00
2017-10-15T01:37:32.519Z,0.00
2017-10-15T01:38:29.676Z,0.00
2017-10-15T01:39:29.546Z,0.00
2017-10-15T01:40:29.554Z,0.00
2017-10-15T01:41:29.572Z,0.00
2017-10-15T01:42:30.397Z,0.00
2017-10-15T01:43:29.663Z,0.00
2017-10-15T01:44:29.940Z,0.00
2017-10-15T01:45:29.704Z,0.00
2017-10-15T01:46:29.756Z,0.00
2017-10-15T01:47:29.798Z,0.00
2017-10-15T01:48:33.061Z,0.00
2017-10-15T01:49:29.839Z,0.00
2017-10-15T01:50:30.196Z,0.00
2017-10-15T01:51:31.492Z,0.00
2017-10-15T01:52:29.947Z,0.00
2017-10-15T01:53:31.216Z,0.00
2017-10-15T01:54:29.995Z,0.00
2017-10-15T01:55:30.050Z,0.00
2017-10-15T01:56:30.061Z,0.00
2017-10-15T01:57:32.771Z,0.00
2017-10-15T01:58:32.411Z,0.00
2017-10-15T01:59:30.191Z,0.00
2017-10-15T02:00:30.919Z,0.00
2017-10-15T02:01:30.469Z,0.00
2017-10-15T02:02:30.278Z,0.00
2017-10-15T02:03:33.913Z,0.00
2017-10-15T02:04:32.446Z,0.00
2017-10-15T02:05:30.683Z,0.00
2017-10-15T02:06:30.389Z,0.00
2017-10-15T02:07:30.447Z,0.00
2017-10-15T02:08:30.451Z,0.00
2017-10-15T02:09:30.500Z,0.00
2017-10-15T02:10:30.935Z,0.00
2017-10-15T02:11:30.555Z,0.00
2017-10-15T02:12:30.834Z,0.00
2017-10-15T02:13:30.618Z,0.00
2017-10-15T02:14:31.047Z,0.00
2017-10-15T02:16:30.742Z,0.00
2017-10-15T02:17:30.747Z,0.00
2017-10-15T02:18:30.797Z,0.00
2017-10-15T02:19:31.195Z,0.00
2017-10-15T02:20:32.210Z,0.00
2017-10-15T02:21:31.863Z,0.00
2017-10-15T02:22:30.923Z,0.00
2017-10-15T02:23:30.946Z,0.00
2017-10-15T02:24:31.015Z,0.00
2017-10-15T02:25:31.231Z,0.00
2017-10-15T02:26:31.339Z,0.00
2017-10-15T02:27:31.090Z,0.00
2017-10-15T02:28:31.102Z,0.00
2017-10-15T02:29:31.189Z,0.00
2017-10-15T02:30:31.193Z,0.00
2017-10-15T02:31:31.216Z,0.00
2017-10-15T02:32:31.754Z,0.00
2017-10-15T02:33:34.417Z,0.00
2017-10-15T02:34:31.316Z,0.00
2017-10-15T02:35:31.331Z,0.00
2017-10-15T02:36:31.383Z,0.00
2017-10-15T02:37:31.396Z,0.00
2017-10-15T02:38:31.519Z,0.00
2017-10-15T02:39:31.461Z,0.00
2017-10-15T02:40:31.744Z,0.00
2017-10-15T02:41:31.540Z,0.00
2017-10-15T02:42:31.558Z,0.00
2017-10-15T02:43:31.594Z,0.00
2017-10-15T02:44:31.656Z,0.00
2017-10-15T02:45:31.672Z,0.00
2017-10-15T02:46:32.003Z,0.00
2017-10-15T02:47:31.720Z,0.00
2017-10-15T02:48:31.926Z,0.00
2017-10-15T02:49:31.807Z,0.00
2017-10-15T02:50:31.841Z,0.00
2017-10-15T02:51:31.876Z,0.00
2017-10-15T02:52:32.132Z,0.00
2017-10-15T02:53:31.921Z,0.00
2017-10-15T02:54:31.946Z,0.00
2017-10-15T02:55:32.001Z,0.00
2017-10-15T02:56:32.036Z,0.00
2017-10-15T02:57:32.043Z,0.00
2017-10-15T02:58:32.348Z,0.00
2017-10-15T02:59:32.179Z,0.00
2017-10-15T03:00:32.811Z,0.00
2017-10-15T03:01:32.174Z,0.00
2017-10-15T03:02:32.230Z,0.00
2017-10-15T03:03:32.255Z,0.00
2017-10-15T03:04:32.593Z,0.00
2017-10-15T03:05:32.326Z,0.00
2017-10-15T03:06:32.342Z,0.00
2017-10-15T03:07:33.363Z,0.00
2017-10-15T03:08:32.401Z,0.00
2017-10-15T03:09:32.445Z,0.00
2017-10-15T03:10:33.234Z,0.00
2017-10-15T03:11:32.557Z,0.00
2017-10-15T03:12:32.577Z,0.00
2017-10-15T03:13:46.686Z,0.00
2017-10-15T03:14:32.609Z,0.00
2017-10-15T03:15:32.836Z,0.00
2017-10-15T03:16:32.983Z,0.00
2017-10-15T03:17:32.714Z,0.00
2017-10-15T03:18:32.740Z,0.00
2017-10-15T03:19:32.775Z,0.00
2017-10-15T03:20:32.808Z,0.00
2017-10-15T03:21:32.893Z,0.00
2017-10-15T03:22:33.124Z,0.00
2017-10-15T03:23:32.889Z,0.00
2017-10-15T03:24:32.949Z,0.00
2017-10-15T03:25:32.973Z,0.00
2017-10-15T03:26:33.027Z,0.00
2017-10-15T03:27:33.017Z,0.00
2017-10-15T03:28:33.342Z,0.00
2017-10-15T03:29:33.104Z,0.00
2017-10-15T03:30:33.787Z,0.00
2017-10-15T03:31:33.168Z,0.00
2017-10-15T03:32:33.189Z,0.00
2017-10-15T03:33:33.232Z,0.00
2017-10-15T03:34:33.510Z,0.00
2017-10-15T03:35:33.282Z,0.00
2017-10-15T03:36:33.360Z,0.00
2017-10-15T03:37:33.513Z,0.00
2017-10-15T03:38:33.397Z,0.00
2017-10-15T03:39:33.429Z,0.00
2017-10-15T03:40:33.708Z,0.00
2017-10-15T03:41:33.480Z,0.00
2017-10-15T03:42:33.904Z,0.00
2017-10-15T03:43:33.541Z,0.00
2017-10-15T03:44:33.580Z,0.00
2017-10-15T03:45:33.624Z,0.00
2017-10-15T03:46:33.911Z,0.00
2017-10-15T03:47:33.667Z,0.00
2017-10-15T03:48:34.739Z,0.00
2017-10-15T03:49:33.763Z,0.00
2017-10-15T03:50:34.418Z,0.00
2017-10-15T03:51:33.796Z,0.00
2017-10-15T03:52:34.085Z,0.00
2017-10-15T03:53:34.205Z,0.00
2017-10-15T03:54:34.082Z,0.00
2017-10-15T03:55:33.994Z,0.00
2017-10-15T03:56:33.964Z,0.00
2017-10-15T03:57:34.009Z,0.00
2017-10-15T03:58:34.027Z,0.00
2017-10-15T03:59:34.517Z,0.00
2017-10-15T04:00:34.094Z,0.00
2017-10-15T04:01:34.148Z,0.00
2017-10-15T04:02:34.158Z,0.00
2017-10-15T04:03:34.899Z,0.00
2017-10-15T04:04:34.236Z,0.00
2017-10-15T04:05:34.250Z,0.00
2017-10-15T04:06:34.587Z,0.00
2017-10-15T04:07:34.333Z,0.00
2017-10-15T04:08:34.353Z,0.00
2017-10-15T04:09:34.408Z,0.00
2017-10-15T04:10:34.468Z,0.00
2017-10-15T04:11:34.513Z,0.00
2017-10-15T04:12:35.824Z,0.00
2017-10-15T04:13:35.177Z,0.00
2017-10-15T04:14:34.564Z,0.00
2017-10-15T04:15:36.190Z,0.00
2017-10-15T04:16:34.611Z,0.00
2017-10-15T04:17:34.639Z,0.00
2017-10-15T04:18:34.789Z,0.00
2017-10-15T04:19:34.725Z,0.00
2017-10-15T04:20:35.047Z,0.00
2017-10-15T04:21:34.765Z,0.00
2017-10-15T04:22:34.803Z,0.00
2017-10-15T04:23:35.101Z,0.00
2017-10-15T04:24:34.864Z,0.00
2017-10-15T04:25:34.916Z,0.00
2017-10-15T04:26:34.948Z,0.00
2017-10-15T04:27:35.212Z,0.00
2017-10-15T04:28:35.018Z,0.00
2017-10-15T04:29:35.048Z,0.00
2017-10-15T04:30:35.076Z,0.00
2017-10-15T04:31:35.107Z,0.00
2017-10-15T04:32:35.288Z,0.00
2017-10-15T04:33:35.177Z,0.00
2017-10-15T04:34:35.510Z,0.00
2017-10-15T04:35:35.236Z,0.00
2017-10-15T04:36:35.252Z,0.00
2017-10-15T04:37:35.286Z,0.00
2017-10-15T04:38:35.672Z,0.00
2017-10-15T04:39:35.368Z,0.00
2017-10-15T04:40:35.407Z,0.00
2017-10-15T04:41:35.664Z,0.00
2017-10-15T04:42:35.445Z,0.00
2017-10-15T04:43:35.496Z,0.00
2017-10-15T04:44:35.526Z,0.00
2017-10-15T04:45:35.560Z,0.00
2017-10-15T04:46:35.576Z,0.00
2017-10-15T04:47:35.626Z,0.00
2017-10-15T04:48:37.275Z,0.00
2017-10-15T04:49:35.695Z,0.00
2017-10-15T04:50:35.734Z,0.00
2017-10-15T04:51:35.755Z,0.00
2017-10-15T04:52:35.769Z,0.00
2017-10-15T04:53:35.802Z,0.00
2017-10-15T04:54:35.833Z,0.00
2017-10-15T04:55:36.245Z,0.00
2017-10-15T04:56:35.940Z,0.00
2017-10-15T04:57:35.966Z,0.00
2017-10-15T04:58:36.019Z,0.00
2017-10-15T04:59:35.993Z,0.00
2017-10-15T05:00:36.031Z,0.00
2017-10-15T05:01:36.067Z,0.00
2017-10-15T05:02:36.391Z,0.00
2017-10-15T05:03:38.636Z,0.00
2017-10-15T05:04:36.389Z,0.00
2017-10-15T05:05:36.323Z,0.00
2017-10-15T05:06:36.917Z,0.00
2017-10-15T05:07:37.386Z,0.00
2017-10-15T05:08:36.326Z,0.00
2017-10-15T05:09:36.716Z,0.00
2017-10-15T05:10:38.483Z,0.00
2017-10-15T05:11:36.383Z,0.00
2017-10-15T05:12:36.422Z,0.00
2017-10-15T05:13:36.495Z,0.00
2017-10-15T05:14:36.485Z,0.00
2017-10-15T05:15:37.366Z,0.00
2017-10-15T05:16:36.797Z,0.00
2017-10-15T05:17:36.601Z,0.00
2017-10-15T05:18:36.630Z,0.00
2017-10-15T05:19:36.654Z,0.00
2017-10-15T05:20:36.674Z,0.00
2017-10-15T05:21:36.726Z,0.00
2017-10-15T05:22:37.052Z,0.00
2017-10-15T05:23:36.781Z,0.00
2017-10-15T05:24:36.815Z,0.00
2017-10-15T05:25:36.856Z,0.00
2017-10-15T05:26:36.933Z,0.00
2017-10-15T05:27:36.914Z,0.00
2017-10-15T05:28:37.178Z,0.00
2017-10-15T05:29:36.960Z,0.00
2017-10-15T05:30:37.072Z,4.00
2017-10-15T05:31:37.039Z,4.00
2017-10-15T05:32:37.106Z,0.00
2017-10-15T05:33:39.446Z,4.00
2017-10-15T05:34:37.441Z,4.00
2017-10-15T05:35:37.174Z,4.00
2017-10-15T05:36:40.116Z,8.00
2017-10-15T05:37:37.237Z,8.00
2017-10-15T05:38:38.037Z,8.00
2017-10-15T05:39:37.313Z,12.00
2017-10-15T05:40:37.582Z,16.00
2017-10-15T05:41:37.708Z,16.00
2017-10-15T05:42:37.556Z,20.00
2017-10-15T05:43:37.412Z,24.00
2017-10-15T05:44:37.473Z,28.00
2017-10-15T05:45:37.516Z,32.00
2017-10-15T05:46:37.823Z,40.00
2017-10-15T05:47:37.569Z,40.00
2017-10-15T05:48:37.576Z,52.00
2017-10-15T05:49:37.644Z,56.00
2017-10-15T05:50:39.734Z,64.00
2017-10-15T05:51:37.971Z,72.00
2017-10-15T05:52:39.978Z,84.00
2017-10-15T05:53:39.892Z,96.00
2017-10-15T05:54:40.938Z,104.00
2017-10-15T05:56:37.858Z,128.00
2017-10-15T05:57:37.866Z,140.00
2017-10-15T05:58:38.147Z,152.00
2017-10-15T05:59:37.933Z,168.00
2017-10-15T06:00:37.980Z,180.00
2017-10-15T06:01:38.006Z,196.00
2017-10-15T06:02:38.020Z,212.00
2017-10-15T06:03:38.054Z,224.00
2017-10-15T06:04:38.404Z,244.00
2017-10-15T06:05:38.117Z,260.00
2017-10-15T06:06:38.148Z,276.00
2017-10-15T06:07:38.198Z,292.00
2017-10-15T06:08:38.261Z,312.00
2017-10-15T06:09:38.267Z,328.00
2017-10-15T06:10:38.546Z,344.00
2017-10-15T06:11:38.332Z,360.00
2017-10-15T06:12:38.362Z,380.00
2017-10-15T06:13:38.374Z,396.00
2017-10-15T06:14:38.455Z,416.00
2017-10-15T06:15:38.457Z,432.00
2017-10-15T06:16:38.772Z,452.00
2017-10-15T06:17:38.558Z,468.00
2017-10-15T06:18:38.537Z,484.00
2017-10-15T06:19:38.586Z,504.00
2017-10-15T06:20:38.599Z,520.00
2017-10-15T06:21:38.655Z,536.00
2017-10-15T06:22:38.954Z,552.00
2017-10-15T06:23:38.693Z,568.00
2017-10-15T06:24:38.933Z,584.00
2017-10-15T06:25:38.759Z,600.00
2017-10-15T06:26:38.809Z,616.00
2017-10-15T06:27:38.835Z,632.00
2017-10-15T06:28:39.112Z,648.00
2017-10-15T06:29:38.911Z,660.00
2017-10-15T06:30:38.937Z,676.00
2017-10-15T06:31:38.966Z,692.00
2017-10-15T06:32:39.233Z,704.00
2017-10-15T06:33:39.329Z,724.00
2017-10-15T06:34:39.320Z,736.00
2017-10-15T06:35:39.116Z,752.00
2017-10-15T06:36:39.142Z,760.00
2017-10-15T06:37:39.168Z,776.00
2017-10-15T06:38:39.177Z,788.00
2017-10-15T06:39:39.209Z,804.00
2017-10-15T06:40:39.265Z,820.00
2017-10-15T06:41:39.591Z,832.00
2017-10-15T06:42:39.385Z,844.00
2017-10-15T06:43:39.337Z,856.00
2017-10-15T06:44:39.407Z,868.00
2017-10-15T06:46:39.452Z,892.00
2017-10-15T06:47:39.581Z,904.00
2017-10-15T06:48:39.812Z,916.00
2017-10-15T06:49:39.662Z,928.00
2017-10-15T06:50:39.981Z,936.00
2017-10-15T06:51:39.600Z,944.00
2017-10-15T06:52:39.644Z,956.00
2017-10-15T06:53:39.806Z,968.00
2017-10-15T06:54:39.715Z,976.00
2017-10-15T06:55:40.042Z,988.00
2017-10-15T06:56:39.774Z,996.00
2017-10-15T06:57:39.819Z,1004.00
2017-10-15T06:58:39.836Z,1012.00
2017-10-15T06:59:39.849Z,1020.00
2017-10-15T07:00:39.906Z,1032.00
2017-10-15T07:01:39.933Z,1040.00
2017-10-15T07:02:40.214Z,1048.00
2017-10-15T07:03:40.001Z,1056.00
2017-10-15T07:04:40.033Z,1064.00
2017-10-15T07:05:40.064Z,1072.00
2017-10-15T07:06:40.095Z,1080.00
2017-10-15T07:07:40.128Z,1088.00
2017-10-15T07:08:40.166Z,1092.00
2017-10-15T07:09:40.505Z,1104.00
2017-10-15T07:10:40.226Z,1112.00
2017-10-15T07:11:40.746Z,1116.00
2017-10-15T07:12:40.323Z,1128.00
2017-10-15T07:13:40.326Z,1136.00
2017-10-15T07:14:40.336Z,1144.00
2017-10-15T07:15:40.368Z,1148.00
2017-10-15T07:16:40.722Z,1156.00
2017-10-15T07:17:40.457Z,1160.00
2017-10-15T07:18:40.481Z,1168.00
2017-10-15T07:19:40.501Z,1176.00
2017-10-15T07:20:40.528Z,1184.00
2017-10-15T07:21:40.584Z,1192.00
2017-10-15T07:22:40.600Z,1200.00
2017-10-15T07:23:40.948Z,1204.00
2017-10-15T07:24:40.676Z,1212.00
2017-10-15T07:25:40.705Z,1220.00
2017-10-15T07:26:40.738Z,1224.00
2017-10-15T07:27:41.040Z,1228.00
2017-10-15T07:28:40.860Z,1236.00
2017-10-15T07:29:42.709Z,1244.00
2017-10-15T07:30:41.154Z,1248.00
2017-10-15T07:31:41.558Z,1252.00
2017-10-15T07:32:40.917Z,1260.00
2017-10-15T07:33:40.972Z,1264.00
2017-10-15T07:34:40.992Z,1272.00
2017-10-15T07:35:41.031Z,1276.00
2017-10-15T07:36:41.049Z,1280.00
2017-10-15T07:37:41.333Z,1288.00
2017-10-15T07:38:41.127Z,1288.00
2017-10-15T07:39:41.158Z,1296.00
2017-10-15T07:40:41.176Z,1300.00
2017-10-15T07:41:41.230Z,1304.00
2017-10-15T07:42:41.258Z,1308.00
2017-10-15T07:43:41.298Z,1304.00
2017-10-15T07:44:41.557Z,1312.00
2017-10-15T07:45:41.356Z,1316.00
2017-10-15T07:46:41.406Z,1320.00
2017-10-15T07:47:41.418Z,1324.00
2017-10-15T07:48:41.437Z,1328.00
2017-10-15T07:49:41.523Z,1328.00
2017-10-15T07:50:41.521Z,1332.00
2017-10-15T07:51:41.839Z,1336.00
2017-10-15T07:52:41.564Z,1340.00
2017-10-15T07:53:41.609Z,1344.00
2017-10-15T07:54:41.648Z,1344.00
2017-10-15T07:55:41.665Z,1352.00
2017-10-15T07:56:41.728Z,1352.00
2017-10-15T07:57:42.101Z,1360.00
2017-10-15T07:58:42.878Z,1364.00
2017-10-15T07:59:41.831Z,1368.00
2017-10-15T08:00:41.842Z,1368.00
2017-10-15T08:01:41.882Z,1372.00
2017-10-15T08:02:41.911Z,1372.00
2017-10-15T08:03:42.585Z,1376.00
2017-10-15T08:04:42.454Z,1380.00
2017-10-15T08:05:41.992Z,1380.00
2017-10-15T08:06:42.042Z,1384.00
2017-10-15T08:07:42.074Z,1388.00
2017-10-15T08:08:44.627Z,1392.00
2017-10-15T08:09:42.438Z,1392.00
2017-10-15T08:10:42.152Z,1400.00
2017-10-15T08:11:42.206Z,1400.00
2017-10-15T08:12:42.687Z,1404.00
2017-10-15T08:13:42.262Z,1408.00
2017-10-15T08:14:42.299Z,1408.00
2017-10-15T08:15:42.625Z,1412.00
2017-10-15T08:16:42.351Z,1412.00
2017-10-15T08:17:42.408Z,1416.00
2017-10-15T08:18:42.418Z,1412.00
2017-10-15T08:19:42.515Z,1416.00
2017-10-15T08:20:43.029Z,1416.00
2017-10-15T08:21:43.000Z,1420.00
2017-10-15T08:22:44.119Z,1424.00
2017-10-15T08:23:42.612Z,1424.00
2017-10-15T08:24:42.671Z,1424.00
2017-10-15T08:25:42.646Z,1432.00
2017-10-15T08:26:42.711Z,1436.00
2017-10-15T08:27:42.977Z,1436.00
2017-10-15T08:28:42.804Z,1436.00
2017-10-15T08:29:42.798Z,1436.00
2017-10-15T08:30:42.820Z,1440.00
2017-10-15T08:31:42.844Z,1444.00
2017-10-15T08:32:42.881Z,1448.00
2017-10-15T08:33:43.229Z,1448.00
2017-10-15T08:34:42.972Z,1452.00
2017-10-15T08:35:42.971Z,1452.00
2017-10-15T08:36:43.061Z,1452.00
2017-10-15T08:37:43.066Z,1456.00
2017-10-15T08:38:43.077Z,1460.00
2017-10-15T08:39:43.424Z,1460.00
2017-10-15T08:40:43.155Z,1464.00
2017-10-15T08:41:43.225Z,1464.00
2017-10-15T08:42:43.238Z,1472.00
2017-10-15T08:43:43.253Z,1476.00
2017-10-15T08:44:43.274Z,1476.00
2017-10-15T08:45:43.621Z,1476.00
2017-10-15T08:46:43.741Z,1480.00
2017-10-15T08:47:43.977Z,1480.00
2017-10-15T08:48:43.417Z,1480.00
2017-10-15T08:49:43.433Z,1484.00
2017-10-15T08:50:46.090Z,1488.00
2017-10-15T08:51:43.753Z,1488.00
2017-10-15T08:52:43.549Z,1492.00
2017-10-15T08:53:43.567Z,1496.00
2017-10-15T08:54:43.611Z,1492.00
2017-10-15T08:55:43.636Z,1496.00
2017-10-15T08:56:44.372Z,1500.00
2017-10-15T08:57:44.560Z,1500.00
2017-10-15T08:58:43.736Z,1504.00
2017-10-15T08:59:43.786Z,1500.00
2017-10-15T09:00:43.816Z,1504.00
2017-10-15T09:01:43.830Z,1508.00
2017-10-15T09:02:43.864Z,1508.00
2017-10-15T09:03:44.247Z,1508.00
2017-10-15T09:04:43.930Z,1512.00
2017-10-15T09:05:43.966Z,1508.00
2017-10-15T09:06:44.013Z,1512.00
2017-10-15T09:07:44.053Z,1516.00
2017-10-15T09:08:44.079Z,1516.00
2017-10-15T09:09:45.350Z,1516.00
2017-10-15T09:10:44.150Z,1516.00
2017-10-15T09:11:44.182Z,1520.00
2017-10-15T09:12:44.197Z,1520.00
2017-10-15T09:13:44.244Z,1524.00
2017-10-15T09:14:44.278Z,1524.00
2017-10-15T09:15:44.300Z,1524.00
2017-10-15T09:16:44.635Z,1528.00
2017-10-15T09:17:44.380Z,1528.00
2017-10-15T09:18:44.412Z,1532.00
2017-10-15T09:19:44.745Z,1536.00
2017-10-15T09:20:44.477Z,1536.00
2017-10-15T09:21:44.517Z,1540.00
2017-10-15T09:22:44.560Z,1544.00
2017-10-15T09:23:44.877Z,1544.00
2017-10-15T09:24:44.711Z,1548.00
2017-10-15T09:25:44.996Z,1548.00
2017-10-15T09:26:44.998Z,1552.00
2017-10-15T09:27:45.595Z,1556.00
2017-10-15T09:28:44.968Z,1556.00
2017-10-15T09:29:45.562Z,1556.00
2017-10-15T09:30:45.247Z,1560.00
2017-10-15T09:31:44.825Z,1560.00
2017-10-15T09:32:45.081Z,1564.00
2017-10-15T09:33:45.082Z,1568.00
2017-10-15T09:34:45.957Z,1568.00
2017-10-15T09:35:45.242Z,1572.00
2017-10-15T09:36:45.036Z,1580.00
2017-10-15T09:37:45.290Z,1584.00
2017-10-15T09:38:45.107Z,1588.00
2017-10-15T09:39:48.153Z,1592.00
2017-10-15T09:40:45.430Z,1596.00
2017-10-15T09:41:45.321Z,1604.00
2017-10-15T09:42:45.260Z,1608.00
2017-10-15T09:43:45.264Z,1616.00
2017-10-15T09:44:45.850Z,1624.00
2017-10-15T09:45:45.582Z,1628.00
2017-10-15T09:46:45.907Z,1636.00
2017-10-15T09:47:46.652Z,1644.00
2017-10-15T09:48:45.456Z,1652.00
2017-10-15T09:49:46.298Z,1656.00
2017-10-15T09:50:45.478Z,1660.00
2017-10-15T09:51:47.955Z,1668.00
2017-10-15T09:52:47.031Z,1676.00
2017-10-15T09:53:46.084Z,1680.00
2017-10-15T09:54:45.594Z,1688.00
2017-10-15T09:55:45.649Z,1692.00
2017-10-15T09:56:46.109Z,1700.00
2017-10-15T09:58:04.760Z,1704.00
2017-10-15T09:58:47.866Z,1712.00
2017-10-15T09:59:45.779Z,1716.00
2017-10-15T10:00:45.792Z,1720.00
2017-10-15T10:01:47.230Z,1724.00
2017-10-15T10:02:46.063Z,1732.00
2017-10-15T10:03:46.396Z,1740.00
2017-10-15T10:04:46.677Z,1748.00
2017-10-15T10:05:45.984Z,1756.00
2017-10-15T10:06:46.309Z,1764.00
2017-10-15T10:07:46.052Z,1764.00
2017-10-15T10:08:46.547Z,1772.00
2017-10-15T10:09:46.094Z,1776.00
2017-10-15T10:10:48.024Z,1784.00
2017-10-15T10:12:46.216Z,1800.00
2017-10-15T10:13:46.494Z,1804.00
2017-10-15T10:14:49.600Z,1812.00
2017-10-15T10:15:47.198Z,1824.00
2017-10-15T10:16:46.348Z,1828.00
2017-10-15T10:17:46.721Z,1836.00
2017-10-15T10:18:46.804Z,1844.00
2017-10-15T10:19:46.430Z,1856.00
2017-10-15T10:20:46.479Z,1864.00
2017-10-15T10:21:46.517Z,1876.00
2017-10-15T10:22:46.603Z,1876.00
2017-10-15T10:23:47.333Z,1892.00
2017-10-15T10:24:46.829Z,1896.00
2017-10-15T10:25:47.001Z,1904.00
2017-10-15T10:26:46.677Z,1912.00
2017-10-15T10:27:46.720Z,1924.00
2017-10-15T10:28:47.968Z,1932.00
2017-10-15T10:29:46.848Z,1940.00
2017-10-15T10:30:46.818Z,1952.00
2017-10-15T10:31:46.864Z,1960.00
2017-10-15T10:32:47.635Z,1976.00
2017-10-15T10:33:46.926Z,1984.00
2017-10-15T10:34:46.953Z,1992.00
2017-10-15T10:36:47.550Z,2012.00
2017-10-15T10:37:47.153Z,2024.00
2017-10-15T10:38:47.084Z,2032.00
2017-10-15T10:39:47.352Z,2040.00
2017-10-15T10:40:47.287Z,2048.00
2017-10-15T10:41:47.172Z,2052.00
2017-10-15T10:42:47.225Z,2060.00
2017-10-15T10:44:47.487Z,2064.00
2017-10-15T10:45:48.398Z,2068.00
2017-10-15T10:46:47.916Z,2076.00
2017-10-15T10:47:47.379Z,2080.00
2017-10-15T10:48:47.424Z,2084.00
2017-10-15T10:49:47.500Z,2088.00
2017-10-15T10:50:50.081Z,2092.00
2017-10-15T10:51:47.775Z,2096.00
2017-10-15T10:52:47.559Z,2096.00
2017-10-15T10:53:47.610Z,2096.00
2017-10-15T10:54:47.631Z,2100.00
2017-10-15T10:55:47.927Z,2104.00
2017-10-15T10:56:47.681Z,2104.00
2017-10-15T10:57:50.224Z,2116.00
2017-10-15T10:58:48.675Z,2120.00
2017-10-15T10:59:47.812Z,2120.00
2017-10-15T11:00:48.115Z,2124.00
2017-10-15T11:01:48.274Z,2132.00
2017-10-15T11:02:48.376Z,2132.00
2017-10-15T11:03:52.812Z,2132.00
2017-10-15T11:04:49.275Z,2140.00
2017-10-15T11:05:48.089Z,2144.00
2017-10-15T11:06:48.034Z,2148.00
2017-10-15T11:07:48.050Z,2152.00
2017-10-15T11:08:48.101Z,2156.00
2017-10-15T11:09:48.403Z,2164.00
2017-10-15T11:10:52.731Z,2168.00
2017-10-15T11:11:49.443Z,2172.00
2017-10-15T11:12:49.329Z,2176.00
2017-10-15T11:13:49.118Z,2184.00
2017-10-15T11:14:48.289Z,2188.00
2017-10-15T11:15:49.345Z,2192.00
2017-10-15T11:16:48.786Z,2192.00
2017-10-15T11:17:49.039Z,2200.00
2017-10-15T11:18:49.563Z,2200.00
2017-10-15T11:19:48.462Z,2208.00
2017-10-15T11:20:49.501Z,2216.00
2017-10-15T11:21:50.204Z,2224.00
2017-10-15T11:22:49.492Z,2228.00
2017-10-15T11:23:49.498Z,2236.00
2017-10-15T11:24:49.101Z,2240.00
2017-10-15T11:25:49.234Z,2248.00
2017-10-15T11:26:49.096Z,2244.00
2017-10-15T11:27:48.887Z,2252.00
2017-10-15T11:28:48.810Z,2256.00
2017-10-15T11:29:49.045Z,2260.00
2017-10-15T11:30:48.861Z,2264.00
2017-10-15T11:31:48.891Z,2264.00
2017-10-15T11:32:48.916Z,2272.00
2017-10-15T11:33:49.663Z,2280.00
2017-10-15T11:34:50.089Z,2284.00
2017-10-15T11:35:49.264Z,2292.00
2017-10-15T11:37:49.142Z,2304.00
2017-10-15T11:38:49.179Z,2312.00
2017-10-15T11:39:49.133Z,2316.00
2017-10-15T11:40:49.185Z,2324.00
2017-10-15T11:41:49.557Z,2332.00
2017-10-15T11:42:49.358Z,2336.00
2017-10-15T11:43:50.334Z,2344.00
2017-10-15T11:44:49.328Z,2344.00
2017-10-15T11:45:49.414Z,2352.00
2017-10-15T11:46:49.413Z,2356.00
2017-10-15T11:47:49.880Z,2364.00
2017-10-15T11:48:49.452Z,2368.00
2017-10-15T11:49:50.075Z,2376.00
2017-10-15T11:50:49.517Z,2384.00
2017-10-15T11:51:49.911Z,2392.00
2017-10-15T11:52:50.783Z,2396.00
2017-10-15T11:53:50.303Z,2400.00
2017-10-15T11:54:49.676Z,2408.00
2017-10-15T11:55:49.699Z,2416.00
2017-10-15T11:56:49.847Z,2424.00
2017-10-15T11:57:55.762Z,2432.00
2017-10-15T11:58:50.467Z,2440.00
2017-10-15T11:59:49.821Z,2448.00
2017-10-15T12:00:50.360Z,2456.00
2017-10-15T12:01:49.897Z,2460.00
2017-10-15T12:02:50.263Z,2468.00
2017-10-15T12:03:49.954Z,2476.00
2017-10-15T12:04:50.117Z,2480.00
2017-10-15T12:05:50.052Z,2484.00
2017-10-15T12:06:50.600Z,2492.00
2017-10-15T12:07:50.393Z,2500.00
2017-10-15T12:08:50.154Z,2508.00
2017-10-15T12:09:50.280Z,2516.00
2017-10-15T12:10:51.151Z,2524.00
2017-10-15T12:11:51.319Z,2528.00
2017-10-15T12:12:50.430Z,2536.00
2017-10-15T12:13:50.330Z,2540.00
2017-10-15T12:14:50.591Z,2548.00
2017-10-15T12:15:50.366Z,2560.00
2017-10-15T12:16:50.651Z,2572.00
2017-10-15T12:17:50.441Z,2572.00
2017-10-15T12:18:50.607Z,2580.00
2017-10-15T12:19:51.106Z,2584.00
2017-10-15T12:20:51.157Z,2588.00
2017-10-15T12:21:50.874Z,2600.00
2017-10-15T12:22:50.607Z,2604.00
2017-10-15T12:23:50.643Z,2608.00
2017-10-15T12:24:50.692Z,2612.00
2017-10-15T12:25:50.793Z,2616.00
2017-10-15T12:26:50.754Z,2628.00
2017-10-15T12:27:50.799Z,2632.00
2017-10-15T12:28:51.160Z,2640.00
2017-10-15T12:29:50.877Z,2648.00
2017-10-15T12:30:51.253Z,2656.00
2017-10-15T12:31:50.940Z,2664.00
2017-10-15T12:32:50.965Z,2672.00
2017-10-15T12:33:50.986Z,2688.00
2017-10-15T12:34:51.022Z,2724.00
2017-10-15T12:35:51.366Z,2776.00
2017-10-15T12:36:51.093Z,2828.00
2017-10-15T12:37:51.225Z,2848.00
2017-10-15T12:38:51.178Z,2876.00
2017-10-15T12:39:51.402Z,2904.00
2017-10-15T12:40:51.333Z,2924.00
2017-10-15T12:41:51.325Z,2932.00
2017-10-15T12:42:54.769Z,2944.00
2017-10-15T12:43:52.020Z,2960.00
2017-10-15T12:44:51.459Z,2976.00
2017-10-15T12:45:51.406Z,3000.00
2017-10-15T12:46:51.432Z,3048.00